createdAt,value
2022-12-27T00:00:15.115Z,4.10
2022-12-27T00:04:17.971Z,4.10
2022-12-27T00:08:20.788Z,4.10
2022-12-27T00:12:25.019Z,4.10
2022-12-27T00:16:27.979Z,4.10
2022-12-27T00:20:30.816Z,4.10
2022-12-27T00:24:35.234Z,4.10
2022-12-27T00:28:39.512Z,4.10
2022-12-27T00:32:42.305Z,4.20
2022-12-27T00:36:45.138Z,4.10
2022-12-27T00:40:48.395Z,4.10
2022-12-27T00:44:52.543Z,4.10
2022-12-27T00:48:55.456Z,4.00
2022-12-27T00:52:58.258Z,4.00
2022-12-27T00:57:01.124Z,4.00
2022-12-27T01:01:09.203Z,3.90
2022-12-27T01:05:12.195Z,4.00
2022-12-27T01:09:14.992Z,3.90
2022-12-27T01:13:17.820Z,3.90
2022-12-27T01:17:22.489Z,3.90
2022-12-27T01:21:25.962Z,3.90
2022-12-27T01:25:28.929Z,3.90
2022-12-27T01:29:31.762Z,3.90
2022-12-27T01:33:35.951Z,3.80
2022-12-27T01:37:38.790Z,3.80
2022-12-27T01:42:00.416Z,3.80
2022-12-27T01:46:03.273Z,3.80
2022-12-27T01:50:09.788Z,3.80
2022-12-27T01:54:12.605Z,3.80
2022-12-27T01:58:18.178Z,3.80
2022-12-27T02:02:22.568Z,3.80
2022-12-27T02:06:27.104Z,3.80
2022-12-27T02:10:30.191Z,3.90
2022-12-27T02:14:34.343Z,3.90
2022-12-27T02:18:37.185Z,3.90
2022-12-27T02:23:10.764Z,3.90
2022-12-27T02:27:18.865Z,3.90
2022-12-27T02:31:25.896Z,3.90
2022-12-27T02:35:31.403Z,3.90
2022-12-27T02:39:35.570Z,3.90
2022-12-27T02:43:52.284Z,3.90
2022-12-27T02:48:13.852Z,3.90
2022-12-27T02:52:38.641Z,3.90
2022-12-27T02:57:04.596Z,3.90
2022-12-27T03:01:30.201Z,3.90
2022-12-27T03:05:37.487Z,3.90
2022-12-27T03:10:02.391Z,3.90
2022-12-27T03:14:25.149Z,4.00
2022-12-27T03:18:38.850Z,3.90
2022-12-27T03:23:02.053Z,3.90
2022-12-27T03:27:09.222Z,3.90
2022-12-27T03:31:31.331Z,3.90
2022-12-27T03:35:36.959Z,3.90
2022-12-27T03:39:42.504Z,3.90
2022-12-27T03:43:45.491Z,3.90
2022-12-27T03:47:49.789Z,3.90
2022-12-27T03:51:55.900Z,4.00
2022-12-27T03:56:00.166Z,4.00
2022-12-27T04:00:03.025Z,4.00
2022-12-27T04:04:05.975Z,4.00
2022-12-27T04:08:26.203Z,4.00
2022-12-27T04:12:47.729Z,4.00
2022-12-27T04:17:07.823Z,4.00
2022-12-27T04:21:28.000Z,4.10
2022-12-27T04:25:48.172Z,4.10
2022-12-27T04:30:09.527Z,4.10
2022-12-27T04:34:29.749Z,4.10
2022-12-27T04:38:32.705Z,4.20
2022-12-27T04:42:52.775Z,4.20
2022-12-27T04:47:15.010Z,4.20
2022-12-27T04:51:35.170Z,4.30
2022-12-27T04:55:38.100Z,4.30
2022-12-27T04:59:58.631Z,4.30
2022-12-27T05:04:02.795Z,4.30
2022-12-27T05:08:23.476Z,4.30
2022-12-27T05:12:43.634Z,4.30
2022-12-27T05:16:46.414Z,4.30
2022-12-27T05:20:50.738Z,4.30
2022-12-27T05:25:10.916Z,4.30
2022-12-27T05:29:13.781Z,4.20
2022-12-27T05:33:16.620Z,4.20
2022-12-27T05:37:20.747Z,4.20
2022-12-27T05:41:23.560Z,4.20
2022-12-27T05:45:26.375Z,4.30
2022-12-27T05:49:29.177Z,4.30
2022-12-27T05:53:33.512Z,4.40
2022-12-27T05:57:36.372Z,4.40
2022-12-27T06:01:39.242Z,4.40
2022-12-27T06:05:42.190Z,4.40
2022-12-27T06:09:46.355Z,4.40
2022-12-27T06:13:50.630Z,4.40
2022-12-27T06:17:53.467Z,4.50
2022-12-27T06:21:58.068Z,4.50
2022-12-27T06:26:04.741Z,4.50
2022-12-27T06:30:08.440Z,4.50
2022-12-27T06:34:11.305Z,4.50
2022-12-27T06:38:14.128Z,4.50
2022-12-27T06:42:18.372Z,4.50
2022-12-27T06:46:21.244Z,4.50
2022-12-27T06:50:24.092Z,4.50
2022-12-27T06:54:26.917Z,4.50
2022-12-27T06:58:31.324Z,4.50
2022-12-27T07:02:34.199Z,4.50
2022-12-27T07:06:37.537Z,4.50
2022-12-27T07:10:40.397Z,4.50
2022-12-27T07:14:44.539Z,4.60
2022-12-27T07:18:49.853Z,4.60
2022-12-27T07:22:52.939Z,4.60
2022-12-27T07:26:55.752Z,4.60
2022-12-27T07:31:00.161Z,4.60
2022-12-27T07:35:03.020Z,4.70
2022-12-27T07:39:06.349Z,4.70
2022-12-27T07:43:09.133Z,4.70
2022-12-27T07:47:13.330Z,4.70
2022-12-27T07:51:17.285Z,4.80
2022-12-27T07:55:20.111Z,4.80
2022-12-27T07:59:23.381Z,4.80
2022-12-27T08:03:27.583Z,4.80
2022-12-27T08:07:30.465Z,4.80
2022-12-27T08:11:33.282Z,4.80
2022-12-27T08:15:36.372Z,4.80
2022-12-27T08:19:40.515Z,4.80
2022-12-27T08:23:43.332Z,4.90
2022-12-27T08:27:46.104Z,4.90
2022-12-27T08:31:48.918Z,4.90
2022-12-27T08:35:54.884Z,4.90
2022-12-27T08:40:02.661Z,4.90
2022-12-27T08:44:06.171Z,5.00
2022-12-27T08:48:09.098Z,5.00
2022-12-27T08:52:13.385Z,5.00
2022-12-27T08:56:16.217Z,5.10
2022-12-27T09:00:19.232Z,5.10
2022-12-27T09:04:22.195Z,5.20
2022-12-27T09:08:26.326Z,5.30
2022-12-27T09:12:29.213Z,5.50
2022-12-27T09:16:34.113Z,5.90
2022-12-27T09:20:38.806Z,6.30
2022-12-27T09:24:43.097Z,6.70
2022-12-27T09:28:46.568Z,7.00
2022-12-27T09:32:49.398Z,7.20
2022-12-27T09:36:52.316Z,7.40
2022-12-27T09:40:59.350Z,7.50
2022-12-27T09:45:08.876Z,7.40
2022-12-27T09:49:12.542Z,7.30
2022-12-27T09:53:17.470Z,7.30
2022-12-27T09:57:30.152Z,7.30
2022-12-27T10:01:35.451Z,7.30
2022-12-27T10:05:39.666Z,7.30
2022-12-27T10:09:52.379Z,7.20
2022-12-27T10:13:58.662Z,7.00
2022-12-27T10:18:09.243Z,6.80
2022-12-27T10:22:17.942Z,6.60
2022-12-27T10:26:21.189Z,6.50
2022-12-27T10:30:25.804Z,6.40
2022-12-27T10:34:28.719Z,6.30
2022-12-27T10:38:33.067Z,6.30
2022-12-27T10:42:38.817Z,6.40
2022-12-27T10:46:45.043Z,6.80
2022-12-27T10:50:50.894Z,7.50
2022-12-27T10:54:54.586Z,8.00
2022-12-27T10:59:06.612Z,8.20
2022-12-27T11:03:20.509Z,8.20
2022-12-27T11:07:23.728Z,8.20
2022-12-27T11:11:27.434Z,8.10
2022-12-27T11:15:31.202Z,8.00
2022-12-27T11:19:35.360Z,7.90
2022-12-27T11:23:44.087Z,7.80
2022-12-27T11:27:47.797Z,7.70
2022-12-27T11:31:51.056Z,7.60
2022-12-27T11:35:57.368Z,7.40
2022-12-27T11:40:13.825Z,7.30
2022-12-27T11:44:18.739Z,7.30
2022-12-27T11:48:26.155Z,7.30
2022-12-27T11:52:43.251Z,7.40
2022-12-27T11:56:49.082Z,7.60
2022-12-27T12:01:03.627Z,8.00
2022-12-27T12:05:22.864Z,8.20
2022-12-27T12:09:41.657Z,8.20
2022-12-27T12:13:54.214Z,8.10
2022-12-27T12:18:02.388Z,8.00
2022-12-27T12:22:15.403Z,8.10
2022-12-27T12:26:21.475Z,8.30
2022-12-27T12:30:39.191Z,8.50
2022-12-27T12:35:00.838Z,8.60
2022-12-27T12:39:09.583Z,8.80
2022-12-27T12:43:23.033Z,9.00
2022-12-27T12:47:35.139Z,9.00
2022-12-27T12:51:46.732Z,8.90
2022-12-27T12:55:55.311Z,8.80
2022-12-27T13:00:12.604Z,8.60
2022-12-27T13:04:27.298Z,8.40
2022-12-27T13:08:31.995Z,8.30
2022-12-27T13:12:38.816Z,8.20
2022-12-27T13:16:47.552Z,8.00
2022-12-27T13:20:54.731Z,7.90
2022-12-27T13:25:04.659Z,7.80
2022-12-27T13:29:25.706Z,7.60
2022-12-27T13:33:36.723Z,7.50
2022-12-27T13:37:47.427Z,7.40
2022-12-27T13:41:58.191Z,7.30
2022-12-27T13:46:10.818Z,7.30
2022-12-27T13:50:31.530Z,7.30
2022-12-27T13:54:59.977Z,7.20
2022-12-27T13:59:11.541Z,7.20
2022-12-27T14:03:24.147Z,7.10
2022-12-27T14:07:38.041Z,7.10
2022-12-27T14:11:49.815Z,7.10
2022-12-27T14:16:04.010Z,7.00
2022-12-27T14:20:18.425Z,7.00
2022-12-27T14:24:27.358Z,7.00
2022-12-27T14:28:42.770Z,6.90
2022-12-27T14:33:00.461Z,6.90
2022-12-27T14:37:20.901Z,6.90
2022-12-27T14:41:39.068Z,6.80
2022-12-27T14:46:00.521Z,6.80
2022-12-27T14:50:21.229Z,6.70
2022-12-27T14:54:44.371Z,6.70
2022-12-27T14:58:54.770Z,6.60
2022-12-27T15:03:03.814Z,6.60
2022-12-27T15:07:18.969Z,6.60
2022-12-27T15:11:37.004Z,6.50
2022-12-27T15:15:47.362Z,6.50
2022-12-27T15:20:04.288Z,6.50
2022-12-27T15:24:13.519Z,6.50
2022-12-27T15:28:19.257Z,6.40
2022-12-27T15:32:26.105Z,6.40
2022-12-27T15:36:38.272Z,6.40
2022-12-27T15:40:47.827Z,6.30
2022-12-27T15:44:53.438Z,6.30
2022-12-27T15:49:01.314Z,6.20
2022-12-27T15:53:19.085Z,6.20
2022-12-27T15:57:35.346Z,6.10
2022-12-27T16:01:39.282Z,6.10
2022-12-27T16:05:45.261Z,6.00
2022-12-27T16:09:48.223Z,6.00
2022-12-27T16:14:12.645Z,6.00
2022-12-27T16:18:37.506Z,5.90
2022-12-27T16:22:42.884Z,5.90
2022-12-27T16:26:51.514Z,5.90
2022-12-27T16:30:56.625Z,5.90
2022-12-27T16:35:13.076Z,5.80
2022-12-27T16:39:24.823Z,5.80
2022-12-27T16:43:51.626Z,5.90
2022-12-27T16:48:06.334Z,5.90
2022-12-27T16:52:19.438Z,5.90
2022-12-27T16:56:23.213Z,5.90
2022-12-27T17:00:37.333Z,5.90
2022-12-27T17:04:54.930Z,5.90
2022-12-27T17:09:12.659Z,6.00
2022-12-27T17:13:17.338Z,6.00
2022-12-27T17:17:23.468Z,6.00
2022-12-27T17:21:30.446Z,6.00
2022-12-27T17:25:41.913Z,6.10
2022-12-27T17:29:55.866Z,6.10
2022-12-27T17:34:05.703Z,6.10
2022-12-27T17:38:15.556Z,6.20
2022-12-27T17:42:40.078Z,6.10
2022-12-27T17:46:47.274Z,6.20
2022-12-27T17:50:51.832Z,6.20
2022-12-27T17:55:14.699Z,6.30
2022-12-27T17:59:25.075Z,6.30
2022-12-27T18:03:30.434Z,6.30
2022-12-27T18:07:33.888Z,6.30
2022-12-27T18:11:38.064Z,6.40
2022-12-27T18:15:44.225Z,6.40
2022-12-27T18:19:47.090Z,6.50
2022-12-27T18:23:52.806Z,6.50
2022-12-27T18:28:01.134Z,6.50
2022-12-27T18:32:05.489Z,6.50
2022-12-27T18:36:09.883Z,6.60
2022-12-27T18:40:19.025Z,6.60
2022-12-27T18:44:27.392Z,6.70
2022-12-27T18:48:33.986Z,6.70
2022-12-27T18:52:40.046Z,6.70
2022-12-27T18:56:43.623Z,6.80
2022-12-27T19:00:50.465Z,6.80
2022-12-27T19:05:13.668Z,6.80
2022-12-27T19:09:17.770Z,6.80
2022-12-27T19:13:22.356Z,6.90
2022-12-27T19:17:29.680Z,6.90
2022-12-27T19:21:33.811Z,7.00
2022-12-27T19:25:37.417Z,7.00
2022-12-27T19:29:48.591Z,7.10
2022-12-27T19:33:54.259Z,7.10
2022-12-27T19:37:57.985Z,7.10
2022-12-27T19:42:02.664Z,7.10
2022-12-27T19:46:05.680Z,7.20
2022-12-27T19:50:10.562Z,7.20
2022-12-27T19:54:14.651Z,7.20
2022-12-27T19:58:19.655Z,7.20
2022-12-27T20:02:23.422Z,7.30
2022-12-27T20:06:28.543Z,7.30
2022-12-27T20:10:31.400Z,7.30
2022-12-27T20:14:34.215Z,7.30
2022-12-27T20:18:38.386Z,7.30
2022-12-27T20:22:42.516Z,7.30
2022-12-27T20:26:46.406Z,7.30
2022-12-27T20:30:49.580Z,7.30
2022-12-27T20:34:52.489Z,7.30
2022-12-27T20:38:56.660Z,7.30
2022-12-27T20:42:59.571Z,7.30
2022-12-27T20:47:03.410Z,7.30
2022-12-27T20:51:07.345Z,7.20
2022-12-27T20:55:12.916Z,7.20
2022-12-27T20:59:15.744Z,7.20
2022-12-27T21:03:18.673Z,7.10
2022-12-27T21:07:22.220Z,7.10
2022-12-27T21:11:28.270Z,7.00
2022-12-27T21:15:34.947Z,7.00
2022-12-27T21:19:41.752Z,6.90
2022-12-27T21:23:44.603Z,6.90
2022-12-27T21:27:49.071Z,6.80
2022-12-27T21:31:53.678Z,6.80
2022-12-27T21:35:57.442Z,6.80
2022-12-27T21:40:00.303Z,6.70
2022-12-27T21:44:04.734Z,6.70
2022-12-27T21:48:07.622Z,6.60
2022-12-27T21:52:11.399Z,6.60
2022-12-27T21:56:15.076Z,6.60
2022-12-27T22:00:19.419Z,6.50
2022-12-27T22:04:22.373Z,6.50
2022-12-27T22:08:25.409Z,6.50
2022-12-27T22:12:28.237Z,6.50
2022-12-27T22:16:33.193Z,6.40
2022-12-27T22:20:36.037Z,6.40
2022-12-27T22:24:38.857Z,6.40
2022-12-27T22:28:41.858Z,6.40
2022-12-27T22:32:45.995Z,6.40
2022-12-27T22:36:50.853Z,6.40
2022-12-27T22:40:53.666Z,6.30
2022-12-27T22:44:56.644Z,6.30
2022-12-27T22:49:02.380Z,6.30
2022-12-27T22:53:05.160Z,6.30
2022-12-27T22:57:07.961Z,6.30
2022-12-27T23:01:14.200Z,6.30
2022-12-27T23:05:18.644Z,6.30
2022-12-27T23:09:21.489Z,6.30
2022-12-27T23:13:26.367Z,6.30
2022-12-27T23:17:29.239Z,6.30
2022-12-27T23:21:33.412Z,6.30
2022-12-27T23:25:36.870Z,6.30
2022-12-27T23:29:39.693Z,6.20
2022-12-27T23:33:43.393Z,6.20
2022-12-27T23:37:47.562Z,6.20
2022-12-27T23:41:50.369Z,6.20
2022-12-27T23:45:53.188Z,6.20
2022-12-27T23:49:56.056Z,6.20
2022-12-27T23:54:00.381Z,6.20
2022-12-27T23:58:03.188Z,6.20
